METAR Data
IDs: Format: Raw Decoded Include TAF

Data at: 1123 UTC 26 Sep 2018

KPHX 261051Z 33003KT 10SM SCT130 28/09 A2988 RMK AO2 SLP096 T02830094
KPHX 260951Z 36004KT 10SM SCT130 29/11 A2987 RMK AO2 SLP093 T02890111
KPHX 260851Z 29005KT 10SM FEW120 31/09 A2987 RMK AO2 SLP093 T03060089 53006
KPHX 260751Z 23005KT 10SM FEW120 29/10 A2986 RMK AO2 SLP090 T02890100
KPHX 260651Z 27005KT 10SM CLR 32/08 A2986 RMK AO2 SLP088 T03170083 403780267
KPHX 260551Z 24004KT 10SM CLR 31/11 A2985 RMK AO2 SLP088 T03060106 10372 20306 51012
KPHX 260451Z 24003KT 10SM CLR 32/09 A2984 RMK AO2 SLP083 T03220089
KPHX 260351Z 23004KT 10SM CLR 33/09 A2983 RMK AO2 SLP079 T03280089
KPHX 260251Z 29006KT 10SM CLR 35/07 A2981 RMK AO2 SLP075 T03500072 53009
KPHX 260151Z 29010KT 10SM FEW120 36/07 A2980 RMK AO2 SLP071 T03610072
KPHX 260051Z 32005KT 10SM FEW130 37/07 A2979 RMK AO2 SLP066 T03670072
KPHX 252351Z VRB03KT 10SM FEW130 37/08 A2979 RMK AO2 SLP065 T03720078 10378 20339 56014
KPHX 252251Z 13006KT 10SM FEW130 38/07 A2979 RMK AO2 SLP067 T03780072
KPHX 252151Z 31006KT 10SM FEW130 37/06 A2981 RMK AO2 SLP072 T03670061
KPHX 252051Z VRB04KT 10SM FEW130 37/06 A2983 RMK AO2 SLP079 T03670061 58022
KPHX 251951Z VRB03KT 10SM FEW120 36/04 A2986 RMK AO2 SLP090 T03610044
KPHX 251851Z 00000KT 10SM FEW110 35/04 A2988 RMK AO2 SLP097 T03500039
KPHX 251751Z 00000KT 10SM FEW110 FEW130 34/04 A2990 RMK AO2 SLP102 T03390039 10344 20267 50005
KPHX 251651Z VRB04KT 10SM SCT110 SCT130 33/07 A2990 RMK AO2 SLP104 T03280067
KPHX 251551Z 12005KT 10SM FEW110 SCT130 30/11 A2989 RMK AO2 SLP101 T03000106
KPHX 251451Z 09006KT 10SM FEW110 BKN130 27/11 A2988 RMK AO2 SLP098 T02720111 53015
KPHX 251351Z 08006KT 10SM BKN130 27/11 A2986 RMK AO2 SLP092 T02670106
KPHX 251251Z 00000KT 10SM BKN130 27/08 A2985 RMK AO2 SLP086 T02720078
KPHX 251151Z 00000KT 10SM SCT120 27/06 A2983 RMK AO2 SLP082 T02720056 10322 20272 53009
KPHX 251051Z 23003KT 10SM BKN110 28/05 A2982 RMK AO2 SLP076 T02780050
KPHX 250951Z 19003KT 10SM SCT110 28/06 A2982 RMK AO2 SLP075 T02830061
KPHX 250851Z 30003KT 10SM BKN110 30/05 A2981 RMK AO2 SLP072 T03000050 53012
KPHX 250751Z 00000KT 10SM SCT250 31/04 A2979 RMK AO2 SLP067 T03060039
KPHX 250651Z 29009KT 10SM FEW120 32/06 A2978 RMK AO2 SLP061 T03170061 403890278
KPHX 250551Z 29008KT 10SM FEW090 33/07 A2977 RMK AO2 SLP060 T03280072 10372 20322 51016
KPHX 250451Z 25007KT 10SM FEW090 33/07 A2976 RMK AO2 SLP057 T03280072
KPHX 250351Z 26004KT 10SM CLR 35/11 A2974 RMK AO2 SLP051 T03500106
KPHX 250251Z 33005KT 10SM CLR 36/10 A2972 RMK AO2 SLP044 T03560100 53007
KPHX 250151Z 33010KT 10SM FEW090 36/10 A2971 RMK AO2 SLP039 T03610100
KPHX 250051Z 30006KT 10SM FEW090 FEW120 37/12 A2970 RMK AO2 SLP035 T03670117
KPHX 242351Z 24004KT 10SM FEW090 FEW120 37/12 A2970 RMK AO2 SLP036 T03670122 10389 20344 56017